Terminal Aerodrome Forecast
Issued by NWS Amarillo, TX

Home | Current Version | Previous Version | Text Only | Print | Product List | Glossary On
Versions: 1 2 3 4 5 6 7 8 9 10 11 12 13 14
000
FTUS44 KAMA 150500
TAFGUY
TAF
KGUY 150520Z 1506/1606 21012KT P6SM SCT020 BKN120
      TEMPO 1508/1512 BKN020
     FM151200 22010KT P6SM OVC025
     FM151600 02012G20KT P6SM SCT020 OVC040
     FM160100 04008KT P6SM SCT005 OVC012=

USA.gov is the U.S. government's official web portal to all federal, state and local government web resources and services.